الصفحة الرئيسية
METAR-TAF:

METAR-TAF

مطار :

لانيون, فرنسا

دائرة عرض: 48-45N, خط طول: 003-28W, ارتفاع: 89 متر

مراقبة الطقس الحالي

تاريخ ووقت الإصدار 35 دقيقة قبل الساعة 01:30UTC
ريح 15 عقدة من الجنوب/الجنوب الغربي, الاتجاه يتراوح بين الجنوب و الغرب/الجنوب الغربي
درجة الحرارة 16°درجة مئوية
الرطوبة 88%
ضغط 1018 hPa
الرؤية 10 كم أو أكثر
غيوم مفككة على ارتفاع 1400 قدم
غيوم مفككة على ارتفاع 2000 قدم
ملبد بالغيوم على ارتفاع 2500 قدم

METAR: LFRO 040130Z AUTO 21015KT 180V240 9999 BKN014 BKN020 OVC025 16/14 Q1018

زمن: 04:05 (02:05 UTC)


TAF: مفقودة

أرصاد الطقس والتوقعات من أكثر من 4000 مطار (تقارير الطقس للمطار METAR والتنبؤ بالطقس بالمطارTAF).

المحطات المتاحة هي النقط الصفراء والحمراء على الخريطة.

حرك المؤشر فوق النقطة لمعرفة اسم المحطة.

ثم انقر لمعرفة أرصاد وتوقعات الطقس.

لتغيير الخارطة: اضغط على الأزرار الخضراء مع رمز الصليب الأسود للتكبير. على الزر الأخضر مع شرطة للتصغير، أو على الأسهم الخضراء للخرائط المجاورة.


METAR-TAF: